Holton, Michigan
Current Conditions -  °F | °C
As of 11:55 AM on Wednesday 22 Oct 2014 (Local Time) from KFFX Reporting Station
Scattered Clouds Scattered Clouds  
Wind Chill: 44°   Ceiling: Unl
Heat Index: 44°   Visibility: 10mi
Dew Point: 34°   Wind: 3mph
Humidity: 67%   Direction: 90°E
Pressure: 30.4"   Gusts: NA
Location:  43.41°N, 86.08°W
Report Text: KFFX 221555Z AUTO 09003KT 10SM SCT018 07/01 A3040 RMK AO2 T00670010
Loading
Personal Weather Stations






























Interactive Weather Map
Tropical Storm Tracking
New forecast layout! Learn more

10-Day Weather Forecast

Advertisements
Track Severe Weather on mobile